Augusta, Kansas
Current Conditions -  °F | °C
As of 8:35 PM on Friday 31 Oct 2014 (Local Time) from KEQA Reporting Station
Clear Clear  
Wind Chill: 34°   Ceiling: Unl
Heat Index: 37°   Visibility: 10mi
Dew Point: 16°   Wind: 5mph
Humidity: 41%   Direction: 80°E
Pressure: 30.43"   Gusts: NA
Location:  37.68°N, 96.98°W
Report Text: KEQA 010135Z AUTO 08004KT 10SM CLR 03/M09 A3043 RMK AO2
Loading
Personal Weather Stations






























Interactive Weather Map
Tropical Storm Tracking
New forecast layout! Learn more

10-Day Weather Forecast

Advertisements
Track Severe Weather on mobile